createdAt,value
2018-08-19T00:00:32.994Z,99.90
2018-08-19T00:03:03.248Z,99.90
2018-08-19T00:05:32.084Z,99.90
2018-08-19T00:10:59.088Z,99.90
2018-08-19T00:13:28.465Z,99.90
2018-08-19T00:21:41.131Z,99.90
2018-08-19T00:24:09.886Z,99.90
2018-08-19T00:26:38.730Z,99.90
2018-08-19T00:29:08.162Z,99.90
2018-08-19T00:31:38.124Z,99.90
2018-08-19T00:34:07.076Z,99.90
2018-08-19T00:36:45.297Z,99.90
2018-08-19T00:39:16.812Z,99.90
2018-08-19T00:41:45.797Z,99.90
2018-08-19T00:44:25.033Z,99.90
2018-08-19T00:46:58.132Z,99.90
2018-08-19T00:49:28.185Z,99.90
2018-08-19T00:51:58.964Z,99.90
2018-08-19T00:54:29.990Z,99.90
2018-08-19T01:03:00.864Z,99.90
2018-08-19T01:05:31.337Z,99.90
2018-08-19T01:08:01.704Z,99.90
2018-08-19T01:10:30.536Z,99.90
2018-08-19T01:12:59.534Z,99.90
2018-08-19T01:18:20.805Z,99.90
2018-08-19T01:21:04.348Z,99.90
2018-08-19T01:23:33.437Z,99.90
2018-08-19T01:26:02.485Z,99.90
2018-08-19T01:28:32.363Z,99.90
2018-08-19T01:31:01.229Z,99.90
2018-08-19T01:33:30.177Z,99.90
2018-08-19T01:39:00.316Z,99.90
2018-08-19T01:41:31.670Z,99.90
2018-08-19T01:44:12.842Z,99.90
2018-08-19T01:46:47.734Z,99.90
2018-08-19T01:49:17.973Z,99.90
2018-08-19T02:00:22.260Z,99.90
2018-08-19T02:03:04.181Z,99.90
2018-08-19T02:16:58.745Z,99.90
2018-08-19T02:19:28.301Z,99.90
2018-08-19T02:21:57.873Z,99.90
2018-08-19T02:24:29.664Z,99.90
2018-08-19T02:27:02.877Z,99.90
2018-08-19T02:29:50.577Z,99.90
2018-08-19T02:32:21.617Z,99.90
2018-08-19T02:35:06.389Z,99.90
2018-08-19T02:37:42.701Z,99.90
2018-08-19T03:07:41.478Z,99.90
2018-08-19T03:10:14.927Z,99.90
2018-08-19T03:12:44.257Z,99.90
2018-08-19T03:15:14.531Z,99.90
2018-08-19T03:17:46.642Z,99.90
2018-08-19T03:20:15.502Z,99.90
2018-08-19T03:22:44.344Z,99.90
2018-08-19T03:25:13.211Z,99.90
2018-08-19T03:27:42.014Z,99.90
2018-08-19T03:30:13.858Z,99.90
2018-08-19T03:32:49.677Z,99.90
2018-08-19T03:35:20.515Z,99.90
2018-08-19T03:37:52.658Z,99.90
2018-08-19T03:40:23.938Z,99.90
2018-08-19T03:42:58.219Z,99.90
2018-08-19T03:45:29.123Z,99.90
2018-08-19T03:47:59.644Z,99.90
2018-08-19T03:50:28.529Z,99.90
2018-08-19T03:52:57.805Z,99.90
2018-08-19T03:55:34.875Z,99.90
2018-08-19T03:58:06.853Z,99.90
2018-08-19T04:00:42.694Z,99.90
2018-08-19T04:03:21.113Z,99.90
2018-08-19T04:05:53.698Z,99.90
2018-08-19T04:08:23.417Z,99.90
2018-08-19T04:10:52.206Z,99.90
2018-08-19T04:13:31.716Z,99.90
2018-08-19T04:16:03.298Z,99.90
2018-08-19T04:18:36.500Z,99.90
2018-08-19T04:21:07.673Z,99.90
2018-08-19T04:23:36.936Z,99.90
2018-08-19T04:26:05.930Z,99.90
2018-08-19T04:28:38.179Z,99.90
2018-08-19T04:31:12.998Z,99.90
2018-08-19T04:33:44.121Z,99.90
2018-08-19T04:36:14.822Z,99.90
2018-08-19T04:38:43.671Z,99.90
2018-08-19T04:41:12.681Z,99.90
2018-08-19T04:43:41.934Z,99.90
2018-08-19T04:46:10.655Z,99.90
2018-08-19T04:48:39.432Z,99.90
2018-08-19T04:51:10.710Z,99.90
2018-08-19T04:53:39.556Z,99.90
2018-08-19T04:56:08.420Z,99.90
2018-08-19T04:58:37.161Z,99.90
2018-08-19T05:01:06.092Z,99.90
2018-08-19T05:03:34.885Z,99.90
2018-08-19T05:06:03.851Z,99.90
2018-08-19T05:08:32.892Z,99.90
2018-08-19T05:11:01.590Z,99.90
2018-08-19T05:13:30.634Z,99.90
2018-08-19T05:15:59.770Z,99.90
2018-08-19T05:18:28.562Z,99.90
2018-08-19T05:21:03.886Z,99.90
2018-08-19T05:23:32.677Z,99.90
2018-08-19T05:26:01.452Z,99.90
2018-08-19T05:28:31.349Z,99.90
2018-08-19T05:31:00.612Z,99.90
2018-08-19T05:33:30.066Z,99.90
2018-08-19T05:35:58.921Z,99.90
2018-08-19T05:38:30.261Z,99.90
2018-08-19T05:41:00.732Z,99.90
2018-08-19T05:43:30.496Z,99.90
2018-08-19T05:46:00.413Z,99.90
2018-08-19T05:48:36.926Z,99.90
2018-08-19T05:51:05.781Z,99.90
2018-08-19T05:53:35.276Z,99.90
2018-08-19T05:56:04.136Z,99.90
2018-08-19T05:58:35.643Z,99.90
2018-08-19T06:01:04.516Z,99.90
2018-08-19T06:03:33.357Z,99.90
2018-08-19T06:06:02.445Z,99.90
2018-08-19T06:08:32.101Z,99.90
2018-08-19T06:11:00.913Z,99.90
2018-08-19T06:13:29.729Z,99.90
2018-08-19T06:15:59.217Z,99.90
2018-08-19T06:18:28.057Z,99.90
2018-08-19T06:20:57.311Z,99.90
2018-08-19T06:23:26.179Z,99.90
2018-08-19T06:25:54.979Z,99.90
2018-08-19T06:28:23.970Z,99.90
2018-08-19T06:30:53.175Z,99.90
2018-08-19T06:33:22.836Z,99.90
2018-08-19T06:35:51.794Z,99.90
2018-08-19T06:38:20.710Z,99.90
2018-08-19T06:40:49.818Z,99.90
2018-08-19T06:43:18.776Z,99.90
2018-08-19T06:45:47.634Z,99.90
2018-08-19T06:48:16.773Z,99.90
2018-08-19T06:50:45.624Z,99.90
2018-08-19T06:53:19.736Z,99.90
2018-08-19T06:55:53.758Z,99.90
2018-08-19T06:58:22.946Z,99.90
2018-08-19T07:00:52.170Z,99.90
2018-08-19T07:03:21.300Z,99.90
2018-08-19T07:06:08.056Z,99.90
2018-08-19T07:08:37.260Z,99.90
2018-08-19T07:11:06.357Z,99.90
2018-08-19T07:13:35.377Z,99.90
2018-08-19T07:16:11.240Z,99.90
2018-08-19T07:18:40.528Z,99.90
2018-08-19T07:21:09.759Z,99.90
2018-08-19T07:23:38.656Z,99.90
2018-08-19T07:26:07.678Z,99.90
2018-08-19T07:28:36.460Z,99.90
2018-08-19T07:31:05.296Z,99.90
2018-08-19T07:33:34.159Z,99.90
2018-08-19T07:36:03.020Z,99.90
2018-08-19T07:38:31.830Z,99.90
2018-08-19T07:41:00.788Z,99.90
2018-08-19T07:43:29.800Z,99.90
2018-08-19T07:45:59.025Z,99.90
2018-08-19T07:48:27.835Z,99.90
2018-08-19T07:50:56.690Z,99.90
2018-08-19T07:53:25.617Z,99.90
2018-08-19T07:55:54.498Z,99.90
2018-08-19T07:58:34.286Z,99.90
2018-08-19T08:01:03.177Z,99.90
2018-08-19T08:03:31.971Z,99.90
2018-08-19T08:06:01.026Z,99.90
2018-08-19T08:08:30.330Z,99.90
2018-08-19T08:10:59.174Z,99.90
2018-08-19T08:13:27.989Z,99.90
2018-08-19T08:15:57.893Z,99.90
2018-08-19T08:18:26.883Z,99.90
2018-08-19T08:21:00.824Z,99.90
2018-08-19T08:23:29.725Z,99.90
2018-08-19T08:25:58.736Z,99.90
2018-08-19T08:28:27.816Z,99.90
2018-08-19T08:30:56.623Z,99.90
2018-08-19T08:33:25.472Z,99.90
2018-08-19T08:35:57.428Z,99.90
2018-08-19T08:38:26.427Z,99.90
2018-08-19T08:40:55.791Z,99.90
2018-08-19T08:43:25.030Z,99.90
2018-08-19T08:45:56.249Z,99.90
2018-08-19T08:48:25.078Z,99.90
2018-08-19T08:50:53.925Z,99.90
2018-08-19T08:53:25.832Z,99.70
2018-08-19T08:55:54.674Z,99.60
2018-08-19T08:58:23.808Z,98.20
2018-08-19T09:00:52.618Z,98.00
2018-08-19T09:03:21.482Z,97.10
2018-08-19T09:05:50.874Z,97.40
2018-08-19T09:08:20.687Z,97.80
2018-08-19T09:10:49.665Z,98.40
2018-08-19T09:13:18.528Z,97.90
2018-08-19T09:15:47.541Z,96.30
2018-08-19T09:18:16.643Z,96.70
2018-08-19T09:20:45.523Z,95.80
2018-08-19T09:23:14.384Z,96.00
2018-08-19T09:25:43.253Z,95.50
2018-08-19T09:28:12.074Z,95.30
2018-08-19T09:30:44.221Z,95.00
2018-08-19T09:33:13.524Z,94.50
2018-08-19T09:35:43.220Z,94.20
2018-08-19T09:38:21.069Z,92.80
2018-08-19T09:40:50.152Z,92.20
2018-08-19T09:43:19.140Z,92.80
2018-08-19T09:45:48.697Z,92.70
2018-08-19T09:48:17.825Z,93.10
2018-08-19T09:50:46.760Z,92.90
2018-08-19T09:53:15.753Z,91.70
2018-08-19T09:55:45.980Z,91.40
2018-08-19T09:58:17.110Z,90.60
2018-08-19T10:00:51.035Z,88.60
2018-08-19T10:03:22.642Z,89.00
2018-08-19T10:05:51.558Z,90.40
2018-08-19T10:08:23.084Z,90.40
2018-08-19T10:10:58.096Z,89.70
2018-08-19T10:13:27.080Z,88.50
2018-08-19T10:15:55.984Z,87.60
2018-08-19T10:18:24.799Z,87.00
2018-08-19T10:20:53.682Z,84.70
2018-08-19T10:23:25.768Z,85.70
2018-08-19T10:25:54.722Z,84.60
2018-08-19T10:28:23.566Z,84.30
2018-08-19T10:31:00.643Z,85.50
2018-08-19T10:33:29.601Z,84.00
2018-08-19T10:35:59.801Z,80.70
2018-08-19T10:38:28.736Z,81.30
2018-08-19T10:41:03.581Z,77.30
2018-08-19T10:43:32.388Z,77.30
2018-08-19T10:46:01.708Z,77.90
2018-08-19T10:48:31.340Z,78.20
2018-08-19T10:51:03.575Z,76.20
2018-08-19T10:53:32.865Z,76.30
2018-08-19T10:56:03.059Z,75.60
2018-08-19T10:58:33.055Z,75.20
2018-08-19T11:01:02.106Z,75.40
2018-08-19T11:03:31.274Z,74.40
2018-08-19T11:06:00.124Z,75.50
2018-08-19T11:08:28.939Z,76.30
2018-08-19T11:10:59.734Z,76.60
2018-08-19T11:13:28.557Z,75.40
2018-08-19T11:15:58.361Z,73.30
2018-08-19T11:18:38.051Z,74.00
2018-08-19T11:21:12.546Z,73.90
2018-08-19T11:23:42.729Z,73.90
2018-08-19T11:26:12.081Z,74.60
2018-08-19T11:29:02.043Z,74.50
2018-08-19T11:31:34.540Z,76.10
2018-08-19T11:34:06.677Z,78.50
2018-08-19T11:36:40.625Z,78.00
2018-08-19T11:39:13.301Z,83.40
2018-08-19T11:41:42.275Z,77.30
2018-08-19T11:44:13.171Z,77.60
2018-08-19T11:46:42.361Z,78.50
2018-08-19T11:49:13.623Z,79.20
2018-08-19T11:51:46.150Z,79.70
2018-08-19T11:54:15.896Z,82.50
2018-08-19T11:56:59.854Z,79.00
2018-08-19T11:59:45.796Z,76.40
2018-08-19T12:02:19.592Z,75.10
2018-08-19T12:04:48.612Z,75.50
2018-08-19T12:07:17.933Z,76.00
2018-08-19T12:09:56.769Z,74.00
2018-08-19T12:12:42.676Z,75.20
2018-08-19T12:15:11.866Z,71.70
2018-08-19T12:17:40.775Z,69.60
2018-08-19T12:20:09.857Z,68.20
2018-08-19T12:22:40.144Z,66.30
2018-08-19T12:25:09.112Z,62.90
2018-08-19T12:30:09.339Z,62.80
2018-08-19T12:32:38.408Z,63.20
2018-08-19T12:35:07.393Z,63.00
2018-08-19T12:37:36.273Z,64.10
2018-08-19T12:40:05.504Z,63.20
2018-08-19T12:42:40.397Z,63.00
2018-08-19T12:45:09.442Z,63.40
2018-08-19T12:47:38.450Z,63.90
2018-08-19T12:50:11.610Z,63.90
2018-08-19T12:52:40.436Z,61.80
2018-08-19T12:55:11.709Z,60.50
2018-08-19T12:57:41.665Z,60.70
2018-08-19T13:00:20.648Z,61.30
2018-08-19T13:02:52.186Z,61.00
2018-08-19T13:05:21.376Z,63.80
2018-08-19T13:07:50.514Z,62.20
2018-08-19T13:10:19.784Z,61.70
2018-08-19T13:12:55.975Z,60.00
2018-08-19T13:15:26.267Z,60.50
2018-08-19T13:17:55.694Z,59.80
2018-08-19T13:20:24.435Z,58.00
2018-08-19T13:22:58.772Z,57.00
2018-08-19T13:25:27.681Z,58.90
2018-08-19T13:27:56.756Z,58.90
2018-08-19T13:30:25.567Z,60.30
2018-08-19T13:32:54.677Z,60.60
2018-08-19T13:35:23.590Z,62.40
2018-08-19T13:37:52.764Z,63.50
2018-08-19T13:40:21.513Z,64.50
2018-08-19T13:42:50.424Z,66.00
2018-08-19T13:45:20.679Z,62.90
2018-08-19T13:47:51.178Z,62.20
2018-08-19T13:50:20.288Z,62.90
2018-08-19T13:52:49.125Z,60.70
2018-08-19T13:55:19.352Z,60.20
2018-08-19T13:57:48.198Z,58.50
2018-08-19T14:00:18.792Z,58.70
2018-08-19T14:02:48.131Z,59.50
2018-08-19T14:05:17.022Z,59.10
2018-08-19T14:07:45.887Z,60.30
2018-08-19T14:10:15.806Z,59.20
2018-08-19T14:12:45.016Z,59.50
2018-08-19T14:15:14.455Z,59.50
2018-08-19T14:17:43.667Z,62.60
2018-08-19T14:20:12.590Z,62.10
2018-08-19T14:22:41.973Z,59.80
2018-08-19T14:25:11.781Z,58.30
2018-08-19T14:27:40.981Z,58.50
2018-08-19T14:30:11.318Z,57.80
2018-08-19T14:32:41.134Z,58.60
2018-08-19T14:35:09.925Z,57.10
2018-08-19T14:37:38.759Z,56.40
2018-08-19T14:40:10.749Z,56.70
2018-08-19T14:42:39.702Z,54.90
2018-08-19T14:45:08.901Z,55.70
2018-08-19T14:47:37.770Z,54.80
2018-08-19T14:50:17.136Z,53.90
2018-08-19T14:52:45.959Z,55.30
2018-08-19T14:55:14.735Z,56.00
2018-08-19T14:57:44.013Z,59.00
2018-08-19T15:00:14.570Z,61.50
2018-08-19T15:02:44.350Z,63.90
2018-08-19T15:05:16.473Z,65.20
2018-08-19T15:07:45.638Z,65.70
2018-08-19T15:10:18.871Z,66.60
2018-08-19T15:12:47.789Z,66.50
2018-08-19T15:15:16.649Z,64.50
2018-08-19T15:17:51.755Z,64.50
2018-08-19T15:20:24.789Z,65.90
2018-08-19T15:23:02.457Z,66.50
2018-08-19T15:25:31.373Z,61.90
2018-08-19T15:28:00.480Z,60.50
2018-08-19T15:30:29.558Z,59.40
2018-08-19T15:32:59.000Z,59.80
2018-08-19T15:35:27.735Z,61.00
2018-08-19T15:37:56.484Z,63.90
2018-08-19T15:40:39.275Z,65.30
2018-08-19T15:43:08.659Z,68.30
2018-08-19T15:45:37.706Z,68.50
2018-08-19T15:48:07.038Z,69.20
2018-08-19T15:50:35.954Z,70.00
2018-08-19T15:53:07.343Z,70.30
2018-08-19T15:55:36.666Z,71.70
2018-08-19T15:58:05.797Z,71.50
2018-08-19T16:00:38.267Z,71.20
2018-08-19T16:03:07.708Z,71.00
2018-08-19T16:05:36.502Z,69.50
2018-08-19T16:08:05.931Z,67.50
2018-08-19T16:10:34.730Z,65.20
2018-08-19T16:13:06.380Z,65.00
2018-08-19T16:15:35.185Z,63.70
2018-08-19T16:18:04.115Z,63.20
2018-08-19T16:20:33.072Z,62.30
2018-08-19T16:23:01.989Z,62.20
2018-08-19T16:25:30.983Z,62.70
2018-08-19T16:27:59.974Z,63.10
2018-08-19T16:30:30.585Z,63.20
2018-08-19T16:33:00.083Z,63.70
2018-08-19T16:35:29.495Z,63.80
2018-08-19T16:37:58.972Z,66.00
2018-08-19T16:40:28.387Z,66.90
2018-08-19T16:42:57.219Z,68.40
2018-08-19T16:45:26.502Z,69.90
2018-08-19T16:47:55.398Z,70.60
2018-08-19T16:50:24.434Z,70.80
2018-08-19T16:52:53.445Z,71.10
2018-08-19T16:55:22.204Z,71.00
2018-08-19T16:57:51.063Z,72.60
2018-08-19T17:00:19.799Z,73.70
2018-08-19T17:02:48.706Z,74.60
2018-08-19T17:05:36.062Z,72.90
2018-08-19T17:08:05.925Z,72.30
2018-08-19T17:10:34.703Z,73.60
2018-08-19T17:13:03.551Z,74.80
2018-08-19T17:15:32.321Z,76.70
2018-08-19T17:18:01.120Z,76.90
2018-08-19T17:20:30.116Z,77.80
2018-08-19T17:22:59.106Z,78.40
2018-08-19T17:25:27.984Z,78.00
2018-08-19T17:27:59.794Z,79.30
2018-08-19T17:30:28.596Z,80.70
2018-08-19T17:33:01.843Z,80.70
2018-08-19T17:35:30.666Z,81.10
2018-08-19T17:37:59.571Z,81.50
2018-08-19T17:40:30.724Z,83.50
2018-08-19T17:42:59.909Z,83.90
2018-08-19T17:45:29.042Z,83.90
2018-08-19T17:47:57.967Z,84.00
2018-08-19T17:50:27.837Z,84.70
2018-08-19T17:52:59.955Z,85.20
2018-08-19T17:55:37.785Z,85.80
2018-08-19T17:58:13.162Z,86.10
2018-08-19T18:00:41.937Z,86.60
2018-08-19T18:03:10.794Z,86.90
2018-08-19T18:05:39.609Z,88.10
2018-08-19T18:08:09.690Z,89.30
2018-08-19T18:10:43.488Z,90.00
2018-08-19T18:13:12.489Z,90.80
2018-08-19T18:15:41.594Z,90.90
2018-08-19T18:18:10.498Z,91.20
2018-08-19T18:20:40.819Z,91.30
2018-08-19T18:23:15.530Z,91.60
2018-08-19T18:25:47.905Z,92.00
2018-08-19T18:28:21.973Z,92.20
2018-08-19T18:31:00.573Z,92.60
2018-08-19T18:33:29.426Z,93.10
2018-08-19T18:35:58.329Z,93.60
2018-08-19T18:38:30.456Z,93.90
2018-08-19T18:40:59.292Z,94.40
2018-08-19T18:43:28.050Z,94.60
2018-08-19T18:45:56.863Z,95.10
2018-08-19T18:48:25.675Z,95.90
2018-08-19T18:50:55.743Z,96.10
2018-08-19T18:53:25.740Z,96.50
2018-08-19T18:55:54.634Z,97.00
2018-08-19T18:58:23.421Z,97.50
2018-08-19T19:00:56.494Z,98.30
2018-08-19T19:03:25.696Z,99.20
2018-08-19T19:05:54.537Z,99.90
2018-08-19T19:08:23.770Z,99.90
2018-08-19T19:11:01.275Z,99.90
2018-08-19T19:13:31.323Z,99.90
2018-08-19T19:16:00.249Z,99.90
2018-08-19T19:21:39.371Z,99.90
2018-08-19T19:24:09.164Z,99.90
2018-08-19T19:26:41.450Z,99.90
2018-08-19T19:29:16.310Z,99.90
2018-08-19T19:31:45.194Z,99.90
2018-08-19T19:34:15.443Z,99.90
2018-08-19T19:36:44.531Z,99.90
2018-08-19T19:39:16.469Z,99.90
2018-08-19T19:41:45.482Z,99.90
2018-08-19T19:44:33.079Z,99.90
2018-08-19T19:47:02.216Z,99.90
2018-08-19T19:49:31.857Z,99.90
2018-08-19T19:52:03.982Z,99.90
2018-08-19T19:54:34.066Z,99.90
2018-08-19T19:57:03.701Z,99.90
2018-08-19T19:59:36.802Z,99.90
2018-08-19T20:02:05.862Z,99.90
2018-08-19T20:04:35.994Z,99.90
2018-08-19T20:07:04.935Z,99.90
2018-08-19T20:09:35.933Z,99.90
2018-08-19T20:12:04.891Z,99.90
2018-08-19T20:14:37.860Z,99.90
2018-08-19T20:17:07.637Z,99.90
2018-08-19T20:19:36.448Z,99.90
2018-08-19T20:22:05.368Z,99.90
2018-08-19T20:24:34.248Z,99.90
2018-08-19T20:27:03.358Z,99.90
2018-08-19T20:29:32.441Z,99.90
2018-08-19T20:32:01.236Z,99.90
2018-08-19T20:34:29.989Z,99.90
2018-08-19T20:36:58.788Z,99.90
2018-08-19T20:39:27.687Z,99.90
2018-08-19T20:41:56.511Z,99.90
2018-08-19T20:44:25.581Z,99.90
2018-08-19T20:46:58.242Z,99.90
2018-08-19T20:49:27.956Z,99.90
2018-08-19T20:51:57.049Z,99.90
2018-08-19T20:54:26.274Z,99.90
2018-08-19T20:56:55.483Z,99.90
2018-08-19T20:59:34.752Z,99.90
2018-08-19T21:02:04.274Z,99.90
2018-08-19T21:04:33.312Z,99.90
2018-08-19T21:07:03.662Z,99.90
2018-08-19T21:09:34.017Z,99.90
2018-08-19T21:12:03.565Z,99.90
2018-08-19T21:14:32.584Z,99.90
2018-08-19T21:17:03.812Z,99.90
2018-08-19T21:19:33.448Z,99.90
2018-08-19T21:22:04.006Z,99.90
2018-08-19T21:24:33.037Z,99.90
2018-08-19T21:27:03.374Z,99.90
2018-08-19T21:29:33.033Z,99.90
2018-08-19T21:32:03.803Z,99.90
2018-08-19T21:34:32.937Z,99.90
2018-08-19T21:37:02.129Z,99.90
2018-08-19T21:39:31.409Z,99.90
2018-08-19T21:42:01.433Z,99.90
2018-08-19T21:44:30.552Z,99.90
2018-08-19T21:47:01.331Z,99.90
2018-08-19T21:49:30.311Z,99.90
2018-08-19T21:51:59.438Z,99.90
2018-08-19T21:54:28.615Z,99.90
2018-08-19T21:56:58.657Z,99.90
